sensor_id;sensor_type;location;lat;lon;timestamp;temperature;humidity
9542;DHT22;4809;48.224;8.572;2023-11-21T00:00:14;6.40;99.90
9542;DHT22;4809;48.224;8.572;2023-11-21T00:02:40;6.40;99.90
9542;DHT22;4809;48.224;8.572;2023-11-21T00:05:10;6.30;99.90
9542;DHT22;4809;48.224;8.572;2023-11-21T00:07:37;6.30;99.90
9542;DHT22;4809;48.224;8.572;2023-11-21T00:10:03;6.30;99.90
9542;DHT22;4809;48.224;8.572;2023-11-21T00:12:31;6.30;99.90
9542;DHT22;4809;48.224;8.572;2023-11-21T00:14:57;6.30;99.90
9542;DHT22;4809;48.224;8.572;2023-11-21T00:17:23;6.30;99.90
9542;DHT22;4809;48.224;8.572;2023-11-21T00:19:48;6.30;99.90
9542;DHT22;4809;48.224;8.572;2023-11-21T00:22:14;6.30;99.90
9542;DHT22;4809;48.224;8.572;2023-11-21T00:24:42;6.40;99.90
9542;DHT22;4809;48.224;8.572;2023-11-21T00:27:07;6.40;99.90
9542;DHT22;4809;48.224;8.572;2023-11-21T00:29:33;6.40;99.90
9542;DHT22;4809;48.224;8.572;2023-11-21T00:31:59;6.40;99.90
9542;DHT22;4809;48.224;8.572;2023-11-21T00:34:24;6.40;99.90
9542;DHT22;4809;48.224;8.572;2023-11-21T00:36:50;6.40;99.90
9542;DHT22;4809;48.224;8.572;2023-11-21T00:39:15;6.40;99.90
9542;DHT22;4809;48.224;8.572;2023-11-21T00:41:44;6.40;99.90
9542;DHT22;4809;48.224;8.572;2023-11-21T00:44:13;6.30;99.90
9542;DHT22;4809;48.224;8.572;2023-11-21T00:46:40;6.30;99.90
9542;DHT22;4809;48.224;8.572;2023-11-21T00:49:06;6.30;99.90
9542;DHT22;4809;48.224;8.572;2023-11-21T00:51:31;6.30;99.90
9542;DHT22;4809;48.224;8.572;2023-11-21T00:53:57;6.30;99.90
9542;DHT22;4809;48.224;8.572;2023-11-21T00:56:23;6.20;99.90
9542;DHT22;4809;48.224;8.572;2023-11-21T00:58:49;6.20;99.90
9542;DHT22;4809;48.224;8.572;2023-11-21T01:01:18;6.10;99.90
9542;DHT22;4809;48.224;8.572;2023-11-21T01:03:46;6.00;99.90
9542;DHT22;4809;48.224;8.572;2023-11-21T01:06:17;6.00;99.90
9542;DHT22;4809;48.224;8.572;2023-11-21T01:08:43;6.10;99.90
9542;DHT22;4809;48.224;8.572;2023-11-21T01:11:09;6.10;99.90
9542;DHT22;4809;48.224;8.572;2023-11-21T01:13:38;6.20;99.90
9542;DHT22;4809;48.224;8.572;2023-11-21T01:16:05;6.20;99.90
9542;DHT22;4809;48.224;8.572;2023-11-21T01:18:31;6.20;99.90
9542;DHT22;4809;48.224;8.572;2023-11-21T01:20:57;6.20;99.90
9542;DHT22;4809;48.224;8.572;2023-11-21T01:23:23;6.20;99.90
9542;DHT22;4809;48.224;8.572;2023-11-21T01:25:49;6.20;99.90
9542;DHT22;4809;48.224;8.572;2023-11-21T01:28:17;6.20;99.90
9542;DHT22;4809;48.224;8.572;2023-11-21T01:30:42;6.20;99.90
9542;DHT22;4809;48.224;8.572;2023-11-21T01:33:08;6.10;99.90
9542;DHT22;4809;48.224;8.572;2023-11-21T01:35:34;6.10;99.90
9542;DHT22;4809;48.224;8.572;2023-11-21T01:38:00;6.20;99.90
9542;DHT22;4809;48.224;8.572;2023-11-21T01:40:26;6.20;99.90
9542;DHT22;4809;48.224;8.572;2023-11-21T01:42:53;6.20;99.90
9542;DHT22;4809;48.224;8.572;2023-11-21T01:45:19;6.20;99.90
9542;DHT22;4809;48.224;8.572;2023-11-21T01:47:45;6.20;99.90
9542;DHT22;4809;48.224;8.572;2023-11-21T01:50:15;6.20;99.90
9542;DHT22;4809;48.224;8.572;2023-11-21T01:52:45;6.20;99.90
9542;DHT22;4809;48.224;8.572;2023-11-21T01:55:11;6.20;99.90
9542;DHT22;4809;48.224;8.572;2023-11-21T01:57:39;6.20;99.90
9542;DHT22;4809;48.224;8.572;2023-11-21T02:00:06;6.20;99.90
9542;DHT22;4809;48.224;8.572;2023-11-21T02:02:50;6.20;99.90
9542;DHT22;4809;48.224;8.572;2023-11-21T02:05:17;6.20;99.90
9542;DHT22;4809;48.224;8.572;2023-11-21T02:07:50;6.20;99.90
9542;DHT22;4809;48.224;8.572;2023-11-21T02:10:18;6.20;99.90
9542;DHT22;4809;48.224;8.572;2023-11-21T02:12:49;6.20;99.90
9542;DHT22;4809;48.224;8.572;2023-11-21T02:15:18;6.10;99.90
9542;DHT22;4809;48.224;8.572;2023-11-21T02:17:49;6.20;99.90
9542;DHT22;4809;48.224;8.572;2023-11-21T02:20:20;6.20;99.90
9542;DHT22;4809;48.224;8.572;2023-11-21T02:22:55;6.20;99.90
9542;DHT22;4809;48.224;8.572;2023-11-21T02:25:25;6.20;99.90
9542;DHT22;4809;48.224;8.572;2023-11-21T02:27:53;6.30;99.90
9542;DHT22;4809;48.224;8.572;2023-11-21T02:30:23;6.30;99.90
9542;DHT22;4809;48.224;8.572;2023-11-21T02:32:50;6.20;99.90
9542;DHT22;4809;48.224;8.572;2023-11-21T02:35:18;6.30;99.90
9542;DHT22;4809;48.224;8.572;2023-11-21T02:37:48;6.30;99.90
9542;DHT22;4809;48.224;8.572;2023-11-21T02:40:13;6.30;99.90
9542;DHT22;4809;48.224;8.572;2023-11-21T02:42:43;6.20;99.90
9542;DHT22;4809;48.224;8.572;2023-11-21T02:45:09;6.20;99.90
9542;DHT22;4809;48.224;8.572;2023-11-21T02:47:38;6.30;99.90
9542;DHT22;4809;48.224;8.572;2023-11-21T02:50:04;6.30;99.90
9542;DHT22;4809;48.224;8.572;2023-11-21T02:52:31;6.30;99.90
9542;DHT22;4809;48.224;8.572;2023-11-21T02:54:58;6.30;99.90
9542;DHT22;4809;48.224;8.572;2023-11-21T02:57:24;6.20;99.90
9542;DHT22;4809;48.224;8.572;2023-11-21T02:59:49;6.10;99.90
9542;DHT22;4809;48.224;8.572;2023-11-21T03:02:16;6.20;99.90
9542;DHT22;4809;48.224;8.572;2023-11-21T03:04:42;6.10;99.90
9542;DHT22;4809;48.224;8.572;2023-11-21T03:07:09;6.10;99.90
9542;DHT22;4809;48.224;8.572;2023-11-21T03:09:35;6.10;99.90
9542;DHT22;4809;48.224;8.572;2023-11-21T03:12:01;6.00;99.90
9542;DHT22;4809;48.224;8.572;2023-11-21T03:14:26;6.00;99.90
9542;DHT22;4809;48.224;8.572;2023-11-21T03:16:52;6.00;99.90
9542;DHT22;4809;48.224;8.572;2023-11-21T03:19:47;6.00;99.90
9542;DHT22;4809;48.224;8.572;2023-11-21T03:22:14;6.00;99.90
9542;DHT22;4809;48.224;8.572;2023-11-21T03:24:40;6.00;99.90
9542;DHT22;4809;48.224;8.572;2023-11-21T03:27:05;6.00;99.90
9542;DHT22;4809;48.224;8.572;2023-11-21T03:29:31;6.10;99.90
9542;DHT22;4809;48.224;8.572;2023-11-21T03:31:56;6.00;99.90
9542;DHT22;4809;48.224;8.572;2023-11-21T03:34:27;5.90;99.90
9542;DHT22;4809;48.224;8.572;2023-11-21T03:36:53;5.90;99.90
9542;DHT22;4809;48.224;8.572;2023-11-21T03:39:22;5.90;99.90
9542;DHT22;4809;48.224;8.572;2023-11-21T03:41:48;5.90;99.90
9542;DHT22;4809;48.224;8.572;2023-11-21T03:44:15;5.80;99.90
9542;DHT22;4809;48.224;8.572;2023-11-21T03:46:40;5.80;99.90
9542;DHT22;4809;48.224;8.572;2023-11-21T03:49:06;5.80;99.90
9542;DHT22;4809;48.224;8.572;2023-11-21T03:51:33;5.70;99.90
9542;DHT22;4809;48.224;8.572;2023-11-21T03:53:59;5.70;99.90
9542;DHT22;4809;48.224;8.572;2023-11-21T03:56:24;5.70;99.90
9542;DHT22;4809;48.224;8.572;2023-11-21T03:58:50;5.70;99.90
9542;DHT22;4809;48.224;8.572;2023-11-21T04:01:21;5.70;99.90
9542;DHT22;4809;48.224;8.572;2023-11-21T04:03:47;5.80;99.90
9542;DHT22;4809;48.224;8.572;2023-11-21T04:06:13;5.80;99.90
9542;DHT22;4809;48.224;8.572;2023-11-21T04:08:39;5.80;99.90
9542;DHT22;4809;48.224;8.572;2023-11-21T04:11:04;5.90;99.90
9542;DHT22;4809;48.224;8.572;2023-11-21T04:13:30;5.90;99.90
9542;DHT22;4809;48.224;8.572;2023-11-21T04:15:56;5.90;99.90
9542;DHT22;4809;48.224;8.572;2023-11-21T04:18:23;5.80;99.90
9542;DHT22;4809;48.224;8.572;2023-11-21T04:20:49;5.90;99.90
9542;DHT22;4809;48.224;8.572;2023-11-21T04:23:15;5.90;99.90
9542;DHT22;4809;48.224;8.572;2023-11-21T04:25:41;5.80;99.90
9542;DHT22;4809;48.224;8.572;2023-11-21T04:28:06;5.80;99.90
9542;DHT22;4809;48.224;8.572;2023-11-21T04:30:32;5.80;99.90
9542;DHT22;4809;48.224;8.572;2023-11-21T04:32:58;5.70;99.90
9542;DHT22;4809;48.224;8.572;2023-11-21T04:35:24;5.70;99.90
9542;DHT22;4809;48.224;8.572;2023-11-21T04:37:50;5.70;99.90
9542;DHT22;4809;48.224;8.572;2023-11-21T04:40:16;5.70;99.90
9542;DHT22;4809;48.224;8.572;2023-11-21T04:42:42;5.60;99.90
9542;DHT22;4809;48.224;8.572;2023-11-21T04:45:08;5.60;99.90
9542;DHT22;4809;48.224;8.572;2023-11-21T04:47:35;5.60;99.90
9542;DHT22;4809;48.224;8.572;2023-11-21T04:50:03;5.60;99.90
9542;DHT22;4809;48.224;8.572;2023-11-21T04:52:29;5.50;99.90
9542;DHT22;4809;48.224;8.572;2023-11-21T04:54:54;5.50;99.90
9542;DHT22;4809;48.224;8.572;2023-11-21T04:57:22;5.50;99.90
9542;DHT22;4809;48.224;8.572;2023-11-21T04:59:51;5.50;99.90
9542;DHT22;4809;48.224;8.572;2023-11-21T05:02:17;5.60;99.90
9542;DHT22;4809;48.224;8.572;2023-11-21T05:04:45;5.60;99.90
9542;DHT22;4809;48.224;8.572;2023-11-21T05:07:10;5.70;99.90
9542;DHT22;4809;48.224;8.572;2023-11-21T05:09:41;5.70;99.90
9542;DHT22;4809;48.224;8.572;2023-11-21T05:12:07;5.70;99.90
9542;DHT22;4809;48.224;8.572;2023-11-21T05:14:32;5.70;99.90
9542;DHT22;4809;48.224;8.572;2023-11-21T05:16:58;5.60;99.90
9542;DHT22;4809;48.224;8.572;2023-11-21T05:19:24;5.60;99.90
9542;DHT22;4809;48.224;8.572;2023-11-21T05:21:50;5.50;99.90
9542;DHT22;4809;48.224;8.572;2023-11-21T05:24:16;5.50;99.90
9542;DHT22;4809;48.224;8.572;2023-11-21T05:26:41;5.50;99.90
9542;DHT22;4809;48.224;8.572;2023-11-21T05:29:07;5.40;99.90
9542;DHT22;4809;48.224;8.572;2023-11-21T05:31:33;5.30;99.90
9542;DHT22;4809;48.224;8.572;2023-11-21T05:33:58;5.30;99.90
9542;DHT22;4809;48.224;8.572;2023-11-21T05:36:24;5.40;99.90
9542;DHT22;4809;48.224;8.572;2023-11-21T05:38:50;5.30;99.90
9542;DHT22;4809;48.224;8.572;2023-11-21T05:41:17;5.30;99.90
9542;DHT22;4809;48.224;8.572;2023-11-21T05:43:42;5.30;99.90
9542;DHT22;4809;48.224;8.572;2023-11-21T05:46:09;5.30;99.90
9542;DHT22;4809;48.224;8.572;2023-11-21T05:48:35;5.20;99.90
9542;DHT22;4809;48.224;8.572;2023-11-21T05:51:04;5.30;99.90
9542;DHT22;4809;48.224;8.572;2023-11-21T05:53:30;5.30;99.90
9542;DHT22;4809;48.224;8.572;2023-11-21T05:55:57;5.30;99.90
9542;DHT22;4809;48.224;8.572;2023-11-21T05:58:22;5.30;99.90
9542;DHT22;4809;48.224;8.572;2023-11-21T06:00:48;5.30;99.90
9542;DHT22;4809;48.224;8.572;2023-11-21T06:03:14;5.30;99.90
9542;DHT22;4809;48.224;8.572;2023-11-21T06:05:39;5.30;99.90
9542;DHT22;4809;48.224;8.572;2023-11-21T06:08:05;5.30;99.90
9542;DHT22;4809;48.224;8.572;2023-11-21T06:10:32;5.20;99.90
9542;DHT22;4809;48.224;8.572;2023-11-21T06:12:57;5.20;99.90
9542;DHT22;4809;48.224;8.572;2023-11-21T06:15:23;5.10;99.90
9542;DHT22;4809;48.224;8.572;2023-11-21T06:17:49;5.10;99.90
9542;DHT22;4809;48.224;8.572;2023-11-21T06:20:18;5.10;99.90
9542;DHT22;4809;48.224;8.572;2023-11-21T06:22:48;5.20;99.90
9542;DHT22;4809;48.224;8.572;2023-11-21T06:25:15;5.20;99.90
9542;DHT22;4809;48.224;8.572;2023-11-21T06:27:45;5.20;99.90
9542;DHT22;4809;48.224;8.572;2023-11-21T06:30:12;5.30;99.90
9542;DHT22;4809;48.224;8.572;2023-11-21T06:32:39;5.30;99.90
9542;DHT22;4809;48.224;8.572;2023-11-21T06:35:06;5.30;99.90
9542;DHT22;4809;48.224;8.572;2023-11-21T06:37:32;5.40;99.90
9542;DHT22;4809;48.224;8.572;2023-11-21T06:39:58;5.40;99.90
9542;DHT22;4809;48.224;8.572;2023-11-21T06:42:25;5.50;99.90
9542;DHT22;4809;48.224;8.572;2023-11-21T06:44:51;5.50;99.90
9542;DHT22;4809;48.224;8.572;2023-11-21T06:47:22;5.50;99.90
9542;DHT22;4809;48.224;8.572;2023-11-21T06:49:51;5.60;99.90
9542;DHT22;4809;48.224;8.572;2023-11-21T06:52:17;5.60;99.90
9542;DHT22;4809;48.224;8.572;2023-11-21T06:54:46;5.60;99.90
9542;DHT22;4809;48.224;8.572;2023-11-21T06:57:13;5.60;99.90
9542;DHT22;4809;48.224;8.572;2023-11-21T06:59:38;5.70;99.90
9542;DHT22;4809;48.224;8.572;2023-11-21T07:02:04;5.70;99.90
9542;DHT22;4809;48.224;8.572;2023-11-21T07:04:37;5.70;99.90
9542;DHT22;4809;48.224;8.572;2023-11-21T07:07:03;5.70;99.90
9542;DHT22;4809;48.224;8.572;2023-11-21T07:09:29;5.70;99.90
9542;DHT22;4809;48.224;8.572;2023-11-21T07:11:55;5.70;99.90
9542;DHT22;4809;48.224;8.572;2023-11-21T07:14:21;5.70;99.90
9542;DHT22;4809;48.224;8.572;2023-11-21T07:16:47;5.70;99.90
9542;DHT22;4809;48.224;8.572;2023-11-21T07:19:13;5.80;99.90
9542;DHT22;4809;48.224;8.572;2023-11-21T07:21:39;5.70;99.90
9542;DHT22;4809;48.224;8.572;2023-11-21T07:24:06;5.80;99.90
9542;DHT22;4809;48.224;8.572;2023-11-21T07:26:33;5.80;99.90
9542;DHT22;4809;48.224;8.572;2023-11-21T07:28:59;5.80;99.90
9542;DHT22;4809;48.224;8.572;2023-11-21T07:31:26;5.70;99.90
9542;DHT22;4809;48.224;8.572;2023-11-21T07:33:51;5.70;99.90
9542;DHT22;4809;48.224;8.572;2023-11-21T07:36:18;5.70;99.90
9542;DHT22;4809;48.224;8.572;2023-11-21T07:38:44;5.70;99.90
9542;DHT22;4809;48.224;8.572;2023-11-21T07:41:11;5.70;99.90
9542;DHT22;4809;48.224;8.572;2023-11-21T07:43:37;5.70;99.90
9542;DHT22;4809;48.224;8.572;2023-11-21T07:46:03;5.70;99.90
9542;DHT22;4809;48.224;8.572;2023-11-21T07:48:32;5.80;99.90
9542;DHT22;4809;48.224;8.572;2023-11-21T07:50:58;5.80;99.90
9542;DHT22;4809;48.224;8.572;2023-11-21T07:53:24;5.90;99.90
9542;DHT22;4809;48.224;8.572;2023-11-21T07:55:51;5.90;99.90
9542;DHT22;4809;48.224;8.572;2023-11-21T07:58:17;6.00;99.90
9542;DHT22;4809;48.224;8.572;2023-11-21T08:00:44;6.00;99.90
9542;DHT22;4809;48.224;8.572;2023-11-21T08:03:09;6.00;99.90
9542;DHT22;4809;48.224;8.572;2023-11-21T08:05:36;6.00;99.90
9542;DHT22;4809;48.224;8.572;2023-11-21T08:08:02;6.10;99.90
9542;DHT22;4809;48.224;8.572;2023-11-21T08:10:28;6.20;99.90
9542;DHT22;4809;48.224;8.572;2023-11-21T08:12:53;6.20;99.90
9542;DHT22;4809;48.224;8.572;2023-11-21T08:15:19;6.10;99.90
9542;DHT22;4809;48.224;8.572;2023-11-21T08:17:46;6.10;99.90
9542;DHT22;4809;48.224;8.572;2023-11-21T08:20:12;6.10;99.90
9542;DHT22;4809;48.224;8.572;2023-11-21T08:22:44;6.10;99.90
9542;DHT22;4809;48.224;8.572;2023-11-21T08:25:10;6.10;99.90
9542;DHT22;4809;48.224;8.572;2023-11-21T08:27:36;6.20;99.90
9542;DHT22;4809;48.224;8.572;2023-11-21T08:30:03;6.30;99.90
9542;DHT22;4809;48.224;8.572;2023-11-21T08:32:29;6.30;99.90
9542;DHT22;4809;48.224;8.572;2023-11-21T08:34:59;6.40;99.90
9542;DHT22;4809;48.224;8.572;2023-11-21T08:37:25;6.40;99.90
9542;DHT22;4809;48.224;8.572;2023-11-21T08:39:52;6.50;99.90
9542;DHT22;4809;48.224;8.572;2023-11-21T08:42:19;6.50;99.90
9542;DHT22;4809;48.224;8.572;2023-11-21T08:44:45;6.50;99.90
9542;DHT22;4809;48.224;8.572;2023-11-21T08:47:13;6.40;99.90
9542;DHT22;4809;48.224;8.572;2023-11-21T08:49:38;6.40;99.90
9542;DHT22;4809;48.224;8.572;2023-11-21T08:52:04;6.40;99.90
9542;DHT22;4809;48.224;8.572;2023-11-21T08:54:31;6.50;99.90
9542;DHT22;4809;48.224;8.572;2023-11-21T08:56:57;6.40;99.90
9542;DHT22;4809;48.224;8.572;2023-11-21T08:59:24;6.40;99.90
9542;DHT22;4809;48.224;8.572;2023-11-21T09:01:50;6.50;99.90
9542;DHT22;4809;48.224;8.572;2023-11-21T09:04:16;6.50;99.90
9542;DHT22;4809;48.224;8.572;2023-11-21T09:06:42;6.50;99.90
9542;DHT22;4809;48.224;8.572;2023-11-21T09:09:08;6.60;99.90
9542;DHT22;4809;48.224;8.572;2023-11-21T09:11:36;6.60;99.90
9542;DHT22;4809;48.224;8.572;2023-11-21T09:14:02;6.60;99.90
9542;DHT22;4809;48.224;8.572;2023-11-21T09:16:29;6.70;99.90
9542;DHT22;4809;48.224;8.572;2023-11-21T09:18:54;6.90;99.90
9542;DHT22;4809;48.224;8.572;2023-11-21T09:21:20;7.00;99.90
9542;DHT22;4809;48.224;8.572;2023-11-21T09:23:46;7.10;99.90
9542;DHT22;4809;48.224;8.572;2023-11-21T09:26:11;7.20;99.90
9542;DHT22;4809;48.224;8.572;2023-11-21T09:28:37;7.20;99.90
9542;DHT22;4809;48.224;8.572;2023-11-21T09:31:04;7.20;99.90
9542;DHT22;4809;48.224;8.572;2023-11-21T09:33:30;7.30;99.90
9542;DHT22;4809;48.224;8.572;2023-11-21T09:35:59;7.30;99.90
9542;DHT22;4809;48.224;8.572;2023-11-21T09:38:24;7.30;99.90
9542;DHT22;4809;48.224;8.572;2023-11-21T09:40:51;7.20;99.90
9542;DHT22;4809;48.224;8.572;2023-11-21T09:43:18;7.20;99.90
9542;DHT22;4809;48.224;8.572;2023-11-21T09:45:49;7.10;99.90
9542;DHT22;4809;48.224;8.572;2023-11-21T09:48:19;7.00;99.90
9542;DHT22;4809;48.224;8.572;2023-11-21T09:50:47;6.90;99.90
9542;DHT22;4809;48.224;8.572;2023-11-21T09:53:19;6.90;99.90
9542;DHT22;4809;48.224;8.572;2023-11-21T09:55:53;6.80;99.90
9542;DHT22;4809;48.224;8.572;2023-11-21T09:58:20;6.80;99.90
9542;DHT22;4809;48.224;8.572;2023-11-21T10:00:48;6.80;99.90
9542;DHT22;4809;48.224;8.572;2023-11-21T10:03:14;6.80;99.90
9542;DHT22;4809;48.224;8.572;2023-11-21T10:05:44;6.80;99.90
9542;DHT22;4809;48.224;8.572;2023-11-21T10:08:12;6.80;99.90
9542;DHT22;4809;48.224;8.572;2023-11-21T10:10:44;6.90;99.90
9542;DHT22;4809;48.224;8.572;2023-11-21T10:13:12;6.90;99.90
9542;DHT22;4809;48.224;8.572;2023-11-21T10:15:38;7.00;99.90
9542;DHT22;4809;48.224;8.572;2023-11-21T10:18:07;7.00;99.90
9542;DHT22;4809;48.224;8.572;2023-11-21T10:20:33;7.10;99.90
9542;DHT22;4809;48.224;8.572;2023-11-21T10:23:00;7.20;99.90
9542;DHT22;4809;48.224;8.572;2023-11-21T10:25:29;7.20;99.90
9542;DHT22;4809;48.224;8.572;2023-11-21T10:28:00;7.30;99.90
9542;DHT22;4809;48.224;8.572;2023-11-21T10:30:37;7.20;99.90
9542;DHT22;4809;48.224;8.572;2023-11-21T10:33:07;7.20;99.90
9542;DHT22;4809;48.224;8.572;2023-11-21T10:35:46;7.20;99.90
9542;DHT22;4809;48.224;8.572;2023-11-21T10:38:14;7.20;99.90
9542;DHT22;4809;48.224;8.572;2023-11-21T10:40:43;7.20;99.90
9542;DHT22;4809;48.224;8.572;2023-11-21T10:43:10;7.30;99.90
9542;DHT22;4809;48.224;8.572;2023-11-21T10:45:39;7.40;99.90
9542;DHT22;4809;48.224;8.572;2023-11-21T10:48:09;7.40;99.90
9542;DHT22;4809;48.224;8.572;2023-11-21T10:50:37;7.40;99.90
9542;DHT22;4809;48.224;8.572;2023-11-21T10:53:03;7.40;99.90
9542;DHT22;4809;48.224;8.572;2023-11-21T10:55:30;7.40;99.90
9542;DHT22;4809;48.224;8.572;2023-11-21T10:57:59;7.30;99.90
9542;DHT22;4809;48.224;8.572;2023-11-21T11:00:26;7.30;99.90
9542;DHT22;4809;48.224;8.572;2023-11-21T11:02:53;7.30;99.90
9542;DHT22;4809;48.224;8.572;2023-11-21T11:05:23;7.30;99.90
9542;DHT22;4809;48.224;8.572;2023-11-21T11:07:51;7.30;99.90
9542;DHT22;4809;48.224;8.572;2023-11-21T11:10:21;7.30;99.90
9542;DHT22;4809;48.224;8.572;2023-11-21T11:12:51;7.30;99.90
9542;DHT22;4809;48.224;8.572;2023-11-21T11:15:19;7.40;99.90
9542;DHT22;4809;48.224;8.572;2023-11-21T11:17:45;7.50;99.90
9542;DHT22;4809;48.224;8.572;2023-11-21T11:20:13;7.60;99.90
9542;DHT22;4809;48.224;8.572;2023-11-21T11:23:08;7.70;99.90
9542;DHT22;4809;48.224;8.572;2023-11-21T11:28:10;7.90;99.90
9542;DHT22;4809;48.224;8.572;2023-11-21T11:31:00;8.00;99.90
9542;DHT22;4809;48.224;8.572;2023-11-21T11:33:41;8.00;99.90
9542;DHT22;4809;48.224;8.572;2023-11-21T11:36:22;8.00;99.90
9542;DHT22;4809;48.224;8.572;2023-11-21T11:38:51;7.90;99.90
9542;DHT22;4809;48.224;8.572;2023-11-21T11:41:25;7.90;99.90
9542;DHT22;4809;48.224;8.572;2023-11-21T11:43:52;7.90;99.90
9542;DHT22;4809;48.224;8.572;2023-11-21T11:46:18;7.90;99.90
9542;DHT22;4809;48.224;8.572;2023-11-21T11:48:48;7.80;99.90
9542;DHT22;4809;48.224;8.572;2023-11-21T11:51:14;7.80;99.90
9542;DHT22;4809;48.224;8.572;2023-11-21T11:53:43;7.80;99.90
9542;DHT22;4809;48.224;8.572;2023-11-21T11:56:21;7.70;99.90
9542;DHT22;4809;48.224;8.572;2023-11-21T11:58:55;7.70;99.90
9542;DHT22;4809;48.224;8.572;2023-11-21T12:01:22;7.70;99.90
9542;DHT22;4809;48.224;8.572;2023-11-21T12:07:02;7.60;99.90
9542;DHT22;4809;48.224;8.572;2023-11-21T12:09:29;7.60;99.90
9542;DHT22;4809;48.224;8.572;2023-11-21T12:11:55;7.70;99.90
9542;DHT22;4809;48.224;8.572;2023-11-21T12:14:24;7.70;99.90
9542;DHT22;4809;48.224;8.572;2023-11-21T12:16:51;7.80;99.90
9542;DHT22;4809;48.224;8.572;2023-11-21T12:19:17;7.80;99.90
9542;DHT22;4809;48.224;8.572;2023-11-21T12:21:44;8.00;99.90
9542;DHT22;4809;48.224;8.572;2023-11-21T12:24:10;8.00;99.90
9542;DHT22;4809;48.224;8.572;2023-11-21T12:26:39;8.00;99.90
9542;DHT22;4809;48.224;8.572;2023-11-21T12:29:05;8.00;99.90
9542;DHT22;4809;48.224;8.572;2023-11-21T12:31:33;7.90;99.90
9542;DHT22;4809;48.224;8.572;2023-11-21T12:34:00;7.90;99.90
9542;DHT22;4809;48.224;8.572;2023-11-21T12:36:26;7.90;99.90
9542;DHT22;4809;48.224;8.572;2023-11-21T12:38:52;8.00;99.90
9542;DHT22;4809;48.224;8.572;2023-11-21T12:41:17;8.10;99.90
9542;DHT22;4809;48.224;8.572;2023-11-21T12:43:43;8.20;99.90
9542;DHT22;4809;48.224;8.572;2023-11-21T12:46:12;8.20;99.90
9542;DHT22;4809;48.224;8.572;2023-11-21T12:48:39;8.30;99.90
9542;DHT22;4809;48.224;8.572;2023-11-21T12:51:08;8.30;99.90
9542;DHT22;4809;48.224;8.572;2023-11-21T12:53:35;8.20;99.90
9542;DHT22;4809;48.224;8.572;2023-11-21T12:56:13;8.10;99.90
9542;DHT22;4809;48.224;8.572;2023-11-21T12:58:44;8.00;99.90
9542;DHT22;4809;48.224;8.572;2023-11-21T13:01:14;7.90;99.90
9542;DHT22;4809;48.224;8.572;2023-11-21T13:03:45;7.90;99.90
9542;DHT22;4809;48.224;8.572;2023-11-21T13:06:14;7.90;99.90
9542;DHT22;4809;48.224;8.572;2023-11-21T13:08:40;7.80;99.90
9542;DHT22;4809;48.224;8.572;2023-11-21T13:11:06;7.90;99.90
9542;DHT22;4809;48.224;8.572;2023-11-21T13:13:32;8.00;99.90
9542;DHT22;4809;48.224;8.572;2023-11-21T13:16:01;8.20;99.90
9542;DHT22;4809;48.224;8.572;2023-11-21T13:18:30;8.40;99.90
9542;DHT22;4809;48.224;8.572;2023-11-21T13:21:01;8.40;99.90
9542;DHT22;4809;48.224;8.572;2023-11-21T13:23:28;8.50;99.90
9542;DHT22;4809;48.224;8.572;2023-11-21T13:25:57;8.40;99.90
9542;DHT22;4809;48.224;8.572;2023-11-21T13:28:23;8.20;99.90
9542;DHT22;4809;48.224;8.572;2023-11-21T13:30:49;8.00;99.90
9542;DHT22;4809;48.224;8.572;2023-11-21T13:33:18;7.90;99.90
9542;DHT22;4809;48.224;8.572;2023-11-21T13:35:47;7.80;99.90
9542;DHT22;4809;48.224;8.572;2023-11-21T13:38:18;7.70;99.90
9542;DHT22;4809;48.224;8.572;2023-11-21T13:40:51;7.60;99.90
9542;DHT22;4809;48.224;8.572;2023-11-21T13:43:21;7.60;99.90
9542;DHT22;4809;48.224;8.572;2023-11-21T13:45:48;7.50;99.90
9542;DHT22;4809;48.224;8.572;2023-11-21T13:48:24;7.40;99.90
9542;DHT22;4809;48.224;8.572;2023-11-21T13:51:13;7.40;99.90
9542;DHT22;4809;48.224;8.572;2023-11-21T13:53:44;7.40;99.90
9542;DHT22;4809;48.224;8.572;2023-11-21T13:56:11;7.40;99.90
9542;DHT22;4809;48.224;8.572;2023-11-21T13:58:38;7.40;99.90
9542;DHT22;4809;48.224;8.572;2023-11-21T14:01:22;7.40;99.90
9542;DHT22;4809;48.224;8.572;2023-11-21T14:04:17;7.50;99.90
9542;DHT22;4809;48.224;8.572;2023-11-21T14:06:43;7.50;99.90
9542;DHT22;4809;48.224;8.572;2023-11-21T14:09:22;7.60;99.90
9542;DHT22;4809;48.224;8.572;2023-11-21T14:11:55;7.60;99.90
9542;DHT22;4809;48.224;8.572;2023-11-21T14:14:24;7.70;99.90
9542;DHT22;4809;48.224;8.572;2023-11-21T14:16:51;7.70;99.90
9542;DHT22;4809;48.224;8.572;2023-11-21T14:19:18;7.70;99.90
9542;DHT22;4809;48.224;8.572;2023-11-21T14:21:44;7.80;99.90
9542;DHT22;4809;48.224;8.572;2023-11-21T14:24:11;7.90;99.90
9542;DHT22;4809;48.224;8.572;2023-11-21T14:26:42;7.90;99.90
9542;DHT22;4809;48.224;8.572;2023-11-21T14:29:09;7.90;99.90
9542;DHT22;4809;48.224;8.572;2023-11-21T14:31:38;7.80;99.90
9542;DHT22;4809;48.224;8.572;2023-11-21T14:34:03;7.70;99.90
9542;DHT22;4809;48.224;8.572;2023-11-21T14:36:32;7.70;99.90
9542;DHT22;4809;48.224;8.572;2023-11-21T14:38:58;7.60;99.90
9542;DHT22;4809;48.224;8.572;2023-11-21T14:41:23;7.60;99.90
9542;DHT22;4809;48.224;8.572;2023-11-21T14:43:50;7.50;99.90
9542;DHT22;4809;48.224;8.572;2023-11-21T14:46:16;7.40;99.90
9542;DHT22;4809;48.224;8.572;2023-11-21T14:48:45;7.30;99.90
9542;DHT22;4809;48.224;8.572;2023-11-21T14:51:24;7.30;99.90
9542;DHT22;4809;48.224;8.572;2023-11-21T14:53:57;7.20;99.90
9542;DHT22;4809;48.224;8.572;2023-11-21T14:56:30;7.20;99.90
9542;DHT22;4809;48.224;8.572;2023-11-21T14:59:04;7.10;99.90
9542;DHT22;4809;48.224;8.572;2023-11-21T15:01:42;7.10;99.90
9542;DHT22;4809;48.224;8.572;2023-11-21T15:04:21;7.10;99.90
9542;DHT22;4809;48.224;8.572;2023-11-21T15:07:01;7.10;99.90
9542;DHT22;4809;48.224;8.572;2023-11-21T15:09:26;7.00;99.90
9542;DHT22;4809;48.224;8.572;2023-11-21T15:11:58;7.00;99.90
9542;DHT22;4809;48.224;8.572;2023-11-21T15:14:39;7.00;99.90
9542;DHT22;4809;48.224;8.572;2023-11-21T15:17:05;7.00;99.90
9542;DHT22;4809;48.224;8.572;2023-11-21T15:19:31;7.00;99.90
9542;DHT22;4809;48.224;8.572;2023-11-21T15:21:57;7.00;99.90
9542;DHT22;4809;48.224;8.572;2023-11-21T15:24:23;7.00;99.90
9542;DHT22;4809;48.224;8.572;2023-11-21T15:26:50;7.10;99.90
9542;DHT22;4809;48.224;8.572;2023-11-21T15:29:16;7.10;99.90
9542;DHT22;4809;48.224;8.572;2023-11-21T15:31:42;7.00;99.90
9542;DHT22;4809;48.224;8.572;2023-11-21T15:34:14;7.00;99.90
9542;DHT22;4809;48.224;8.572;2023-11-21T15:36:40;7.00;99.90
9542;DHT22;4809;48.224;8.572;2023-11-21T15:39:05;7.10;99.90
9542;DHT22;4809;48.224;8.572;2023-11-21T15:41:32;7.10;99.90
9542;DHT22;4809;48.224;8.572;2023-11-21T15:43:58;7.10;99.90
9542;DHT22;4809;48.224;8.572;2023-11-21T15:46:24;7.10;99.90
9542;DHT22;4809;48.224;8.572;2023-11-21T15:48:49;7.10;99.90
9542;DHT22;4809;48.224;8.572;2023-11-21T15:51:20;7.10;99.90
9542;DHT22;4809;48.224;8.572;2023-11-21T15:53:46;7.00;99.90
9542;DHT22;4809;48.224;8.572;2023-11-21T15:56:12;7.00;99.90
9542;DHT22;4809;48.224;8.572;2023-11-21T15:58:39;6.90;99.90
9542;DHT22;4809;48.224;8.572;2023-11-21T16:01:09;6.90;99.90
9542;DHT22;4809;48.224;8.572;2023-11-21T16:03:36;6.90;99.90
9542;DHT22;4809;48.224;8.572;2023-11-21T16:06:02;6.90;99.90
9542;DHT22;4809;48.224;8.572;2023-11-21T16:08:28;7.00;99.90
9542;DHT22;4809;48.224;8.572;2023-11-21T16:10:54;6.90;99.90
9542;DHT22;4809;48.224;8.572;2023-11-21T16:13:20;6.90;99.90
9542;DHT22;4809;48.224;8.572;2023-11-21T16:15:46;6.90;99.90
9542;DHT22;4809;48.224;8.572;2023-11-21T16:18:14;6.90;99.90
9542;DHT22;4809;48.224;8.572;2023-11-21T16:20:40;6.90;99.90
9542;DHT22;4809;48.224;8.572;2023-11-21T16:23:06;6.80;99.90
9542;DHT22;4809;48.224;8.572;2023-11-21T16:25:34;6.80;99.90